sensor_id;sensor_type;location;lat;lon;timestamp;P1;durP1;ratioP1;P2;durP2;ratioP2
50417;SDS011;36346;48.280;14.292;2023-04-30T00:00:14;4.60;;;4.60;;
50417;SDS011;36346;48.280;14.292;2023-04-30T00:02:42;4.72;;;4.72;;
50417;SDS011;36346;48.280;14.292;2023-04-30T00:05:10;5.17;;;5.17;;
50417;SDS011;36346;48.280;14.292;2023-04-30T00:07:38;5.38;;;5.38;;
50417;SDS011;36346;48.280;14.292;2023-04-30T00:10:09;5.25;;;5.25;;
50417;SDS011;36346;48.280;14.292;2023-04-30T00:12:37;5.26;;;5.26;;
50417;SDS011;36346;48.280;14.292;2023-04-30T00:15:05;5.56;;;5.56;;
50417;SDS011;36346;48.280;14.292;2023-04-30T00:17:33;5.60;;;5.60;;
50417;SDS011;36346;48.280;14.292;2023-04-30T00:20:01;5.46;;;5.46;;
50417;SDS011;36346;48.280;14.292;2023-04-30T00:22:29;5.23;;;5.23;;
50417;SDS011;36346;48.280;14.292;2023-04-30T00:24:57;5.52;;;5.52;;
50417;SDS011;36346;48.280;14.292;2023-04-30T00:27:25;5.24;;;5.24;;
50417;SDS011;36346;48.280;14.292;2023-04-30T00:29:53;5.87;;;5.87;;
50417;SDS011;36346;48.280;14.292;2023-04-30T00:32:22;5.54;;;5.54;;
50417;SDS011;36346;48.280;14.292;2023-04-30T00:34:50;5.31;;;5.31;;
50417;SDS011;36346;48.280;14.292;2023-04-30T00:37:18;5.52;;;5.52;;
50417;SDS011;36346;48.280;14.292;2023-04-30T00:39:45;5.64;;;5.64;;
50417;SDS011;36346;48.280;14.292;2023-04-30T00:42:13;5.50;;;5.50;;
50417;SDS011;36346;48.280;14.292;2023-04-30T00:44:41;5.54;;;5.54;;
50417;SDS011;36346;48.280;14.292;2023-04-30T00:47:09;5.60;;;5.60;;
50417;SDS011;36346;48.280;14.292;2023-04-30T00:49:37;5.73;;;5.73;;
50417;SDS011;36346;48.280;14.292;2023-04-30T00:52:05;5.67;;;5.67;;
50417;SDS011;36346;48.280;14.292;2023-04-30T00:54:33;5.77;;;5.77;;
50417;SDS011;36346;48.280;14.292;2023-04-30T00:57:01;5.71;;;5.71;;
50417;SDS011;36346;48.280;14.292;2023-04-30T00:59:32;5.81;;;5.81;;
50417;SDS011;36346;48.280;14.292;2023-04-30T01:02:00;5.83;;;5.83;;
50417;SDS011;36346;48.280;14.292;2023-04-30T01:04:29;5.63;;;5.63;;
50417;SDS011;36346;48.280;14.292;2023-04-30T01:06:59;6.06;;;6.06;;
50417;SDS011;36346;48.280;14.292;2023-04-30T01:09:28;6.02;;;6.02;;
50417;SDS011;36346;48.280;14.292;2023-04-30T01:12:19;6.37;;;6.37;;
50417;SDS011;36346;48.280;14.292;2023-04-30T01:20:09;6.04;;;6.04;;
50417;SDS011;36346;48.280;14.292;2023-04-30T01:28:05;5.77;;;5.77;;
50417;SDS011;36346;48.280;14.292;2023-04-30T01:30:36;6.40;;;6.40;;
50417;SDS011;36346;48.280;14.292;2023-04-30T01:33:07;6.10;;;6.10;;
50417;SDS011;36346;48.280;14.292;2023-04-30T01:44:23;6.92;;;6.92;;
50417;SDS011;36346;48.280;14.292;2023-04-30T01:47:14;6.71;;;6.71;;
50417;SDS011;36346;48.280;14.292;2023-04-30T01:58:02;7.20;;;7.20;;
50417;SDS011;36346;48.280;14.292;2023-04-30T02:00:33;7.11;;;7.11;;
50417;SDS011;36346;48.280;14.292;2023-04-30T02:03:02;7.40;;;7.40;;
50417;SDS011;36346;48.280;14.292;2023-04-30T02:05:30;7.00;;;7.00;;
50417;SDS011;36346;48.280;14.292;2023-04-30T02:07:59;7.04;;;7.04;;
50417;SDS011;36346;48.280;14.292;2023-04-30T02:10:27;7.07;;;7.07;;
50417;SDS011;36346;48.280;14.292;2023-04-30T02:12:56;7.23;;;7.23;;
50417;SDS011;36346;48.280;14.292;2023-04-30T02:15:24;7.99;;;7.99;;
50417;SDS011;36346;48.280;14.292;2023-04-30T02:17:52;7.51;;;7.51;;
50417;SDS011;36346;48.280;14.292;2023-04-30T02:20:20;7.53;;;7.52;;
50417;SDS011;36346;48.280;14.292;2023-04-30T02:22:48;7.34;;;7.34;;
50417;SDS011;36346;48.280;14.292;2023-04-30T02:25:16;7.71;;;7.71;;
50417;SDS011;36346;48.280;14.292;2023-04-30T02:27:44;7.81;;;7.81;;
50417;SDS011;36346;48.280;14.292;2023-04-30T02:30:12;7.98;;;7.98;;
50417;SDS011;36346;48.280;14.292;2023-04-30T02:32:40;7.64;;;7.64;;
50417;SDS011;36346;48.280;14.292;2023-04-30T02:35:09;7.49;;;7.49;;
50417;SDS011;36346;48.280;14.292;2023-04-30T02:37:37;7.66;;;7.65;;
50417;SDS011;36346;48.280;14.292;2023-04-30T02:40:05;7.69;;;7.69;;
50417;SDS011;36346;48.280;14.292;2023-04-30T02:42:33;7.72;;;7.72;;
50417;SDS011;36346;48.280;14.292;2023-04-30T02:45:03;8.03;;;8.03;;
50417;SDS011;36346;48.280;14.292;2023-04-30T02:47:31;8.04;;;8.04;;
50417;SDS011;36346;48.280;14.292;2023-04-30T02:49:59;8.03;;;8.03;;
50417;SDS011;36346;48.280;14.292;2023-04-30T02:52:27;7.66;;;7.66;;
50417;SDS011;36346;48.280;14.292;2023-04-30T02:54:55;7.47;;;7.47;;
50417;SDS011;36346;48.280;14.292;2023-04-30T02:57:23;7.53;;;7.53;;
50417;SDS011;36346;48.280;14.292;2023-04-30T02:59:51;7.69;;;7.69;;
50417;SDS011;36346;48.280;14.292;2023-04-30T03:02:19;7.97;;;7.97;;
50417;SDS011;36346;48.280;14.292;2023-04-30T03:04:50;8.52;;;8.52;;
50417;SDS011;36346;48.280;14.292;2023-04-30T03:07:18;7.81;;;7.81;;
50417;SDS011;36346;48.280;14.292;2023-04-30T03:09:46;7.92;;;7.92;;
50417;SDS011;36346;48.280;14.292;2023-04-30T03:12:14;8.05;;;8.04;;
50417;SDS011;36346;48.280;14.292;2023-04-30T03:14:42;7.70;;;7.70;;
50417;SDS011;36346;48.280;14.292;2023-04-30T03:17:10;7.55;;;7.55;;
50417;SDS011;36346;48.280;14.292;2023-04-30T03:19:38;7.66;;;7.66;;
50417;SDS011;36346;48.280;14.292;2023-04-30T03:22:06;7.86;;;7.86;;
50417;SDS011;36346;48.280;14.292;2023-04-30T03:24:34;7.63;;;7.63;;
50417;SDS011;36346;48.280;14.292;2023-04-30T03:27:02;7.97;;;7.97;;
50417;SDS011;36346;48.280;14.292;2023-04-30T03:29:30;7.95;;;7.95;;
50417;SDS011;36346;48.280;14.292;2023-04-30T03:31:58;8.16;;;8.16;;
50417;SDS011;36346;48.280;14.292;2023-04-30T03:34:26;8.01;;;8.01;;
50417;SDS011;36346;48.280;14.292;2023-04-30T03:36:54;7.81;;;7.81;;
50417;SDS011;36346;48.280;14.292;2023-04-30T03:39:22;7.81;;;7.81;;
50417;SDS011;36346;48.280;14.292;2023-04-30T03:41:49;7.70;;;7.70;;
50417;SDS011;36346;48.280;14.292;2023-04-30T03:44:17;7.43;;;7.43;;
50417;SDS011;36346;48.280;14.292;2023-04-30T03:46:45;7.59;;;7.59;;
50417;SDS011;36346;48.280;14.292;2023-04-30T03:49:13;7.72;;;7.72;;
50417;SDS011;36346;48.280;14.292;2023-04-30T03:51:41;7.87;;;7.87;;
50417;SDS011;36346;48.280;14.292;2023-04-30T03:54:09;7.46;;;7.46;;
50417;SDS011;36346;48.280;14.292;2023-04-30T03:56:37;7.51;;;7.51;;
50417;SDS011;36346;48.280;14.292;2023-04-30T03:59:05;7.64;;;7.64;;
50417;SDS011;36346;48.280;14.292;2023-04-30T04:01:33;7.22;;;7.22;;
50417;SDS011;36346;48.280;14.292;2023-04-30T04:04:01;7.26;;;7.26;;
50417;SDS011;36346;48.280;14.292;2023-04-30T04:06:31;7.71;;;7.71;;
50417;SDS011;36346;48.280;14.292;2023-04-30T04:08:59;7.55;;;7.55;;
50417;SDS011;36346;48.280;14.292;2023-04-30T04:11:27;7.32;;;7.32;;
50417;SDS011;36346;48.280;14.292;2023-04-30T04:13:56;7.33;;;7.33;;
50417;SDS011;36346;48.280;14.292;2023-04-30T04:16:24;7.57;;;7.57;;
50417;SDS011;36346;48.280;14.292;2023-04-30T04:18:52;7.23;;;7.23;;
50417;SDS011;36346;48.280;14.292;2023-04-30T04:21:21;7.03;;;7.03;;
50417;SDS011;36346;48.280;14.292;2023-04-30T04:23:49;7.38;;;7.38;;
50417;SDS011;36346;48.280;14.292;2023-04-30T04:26:17;7.75;;;7.75;;
50417;SDS011;36346;48.280;14.292;2023-04-30T04:28:48;7.84;;;7.84;;
50417;SDS011;36346;48.280;14.292;2023-04-30T04:31:16;7.38;;;7.38;;
50417;SDS011;36346;48.280;14.292;2023-04-30T04:33:44;7.46;;;7.46;;
50417;SDS011;36346;48.280;14.292;2023-04-30T04:36:13;7.00;;;7.00;;
50417;SDS011;36346;48.280;14.292;2023-04-30T04:38:41;6.76;;;6.76;;
50417;SDS011;36346;48.280;14.292;2023-04-30T04:41:10;7.11;;;7.11;;
50417;SDS011;36346;48.280;14.292;2023-04-30T04:43:38;7.41;;;7.41;;
50417;SDS011;36346;48.280;14.292;2023-04-30T04:46:06;7.31;;;7.31;;
50417;SDS011;36346;48.280;14.292;2023-04-30T04:48:37;7.51;;;7.51;;
50417;SDS011;36346;48.280;14.292;2023-04-30T04:51:05;9.06;;;9.06;;
50417;SDS011;36346;48.280;14.292;2023-04-30T04:53:33;8.19;;;8.19;;
50417;SDS011;36346;48.280;14.292;2023-04-30T04:56:01;9.77;;;9.77;;
50417;SDS011;36346;48.280;14.292;2023-04-30T04:58:30;10.16;;;10.16;;
50417;SDS011;36346;48.280;14.292;2023-04-30T05:00:58;10.56;;;10.56;;
50417;SDS011;36346;48.280;14.292;2023-04-30T05:03:27;10.55;;;10.55;;
50417;SDS011;36346;48.280;14.292;2023-04-30T05:05:55;10.96;;;10.96;;
50417;SDS011;36346;48.280;14.292;2023-04-30T05:08:23;10.57;;;10.54;;
50417;SDS011;36346;48.280;14.292;2023-04-30T05:10:52;10.28;;;10.28;;
50417;SDS011;36346;48.280;14.292;2023-04-30T05:13:20;9.65;;;9.65;;
50417;SDS011;36346;48.280;14.292;2023-04-30T05:15:51;9.95;;;9.95;;
50417;SDS011;36346;48.280;14.292;2023-04-30T05:18:20;11.26;;;11.24;;
50417;SDS011;36346;48.280;14.292;2023-04-30T05:20:48;11.52;;;11.52;;
50417;SDS011;36346;48.280;14.292;2023-04-30T05:23:16;11.28;;;11.28;;
50417;SDS011;36346;48.280;14.292;2023-04-30T05:25:44;11.97;;;11.96;;
50417;SDS011;36346;48.280;14.292;2023-04-30T05:28:12;12.27;;;12.27;;
50417;SDS011;36346;48.280;14.292;2023-04-30T05:30:40;11.76;;;11.76;;
50417;SDS011;36346;48.280;14.292;2023-04-30T05:33:08;11.59;;;11.59;;
50417;SDS011;36346;48.280;14.292;2023-04-30T05:35:36;12.17;;;12.17;;
50417;SDS011;36346;48.280;14.292;2023-04-30T05:38:04;11.92;;;11.92;;
50417;SDS011;36346;48.280;14.292;2023-04-30T05:40:32;11.59;;;11.59;;
50417;SDS011;36346;48.280;14.292;2023-04-30T05:43:00;11.25;;;11.25;;
50417;SDS011;36346;48.280;14.292;2023-04-30T05:45:28;10.99;;;10.98;;
50417;SDS011;36346;48.280;14.292;2023-04-30T05:47:56;11.44;;;11.40;;
50417;SDS011;36346;48.280;14.292;2023-04-30T05:50:24;13.05;;;13.05;;
50417;SDS011;36346;48.280;14.292;2023-04-30T05:52:52;14.22;;;14.22;;
50417;SDS011;36346;48.280;14.292;2023-04-30T05:55:20;14.98;;;14.98;;
50417;SDS011;36346;48.280;14.292;2023-04-30T05:57:48;15.64;;;15.64;;
50417;SDS011;36346;48.280;14.292;2023-04-30T06:00:16;14.56;;;14.56;;
50417;SDS011;36346;48.280;14.292;2023-04-30T06:02:44;15.47;;;15.47;;
50417;SDS011;36346;48.280;14.292;2023-04-30T06:05:12;15.30;;;15.28;;
50417;SDS011;36346;48.280;14.292;2023-04-30T06:07:43;15.75;;;15.75;;
50417;SDS011;36346;48.280;14.292;2023-04-30T06:10:10;16.08;;;16.08;;
50417;SDS011;36346;48.280;14.292;2023-04-30T06:12:39;15.39;;;15.39;;
50417;SDS011;36346;48.280;14.292;2023-04-30T06:15:07;14.47;;;14.47;;
50417;SDS011;36346;48.280;14.292;2023-04-30T06:17:35;15.05;;;15.04;;
50417;SDS011;36346;48.280;14.292;2023-04-30T06:20:03;15.19;;;15.19;;
50417;SDS011;36346;48.280;14.292;2023-04-30T06:22:33;15.20;;;15.20;;
50417;SDS011;36346;48.280;14.292;2023-04-30T06:25:01;14.46;;;14.46;;
50417;SDS011;36346;48.280;14.292;2023-04-30T06:27:30;14.56;;;14.56;;
50417;SDS011;36346;48.280;14.292;2023-04-30T06:29:59;14.59;;;14.59;;
50417;SDS011;36346;48.280;14.292;2023-04-30T06:32:31;14.22;;;14.22;;
50417;SDS011;36346;48.280;14.292;2023-04-30T06:34:59;13.42;;;13.42;;
50417;SDS011;36346;48.280;14.292;2023-04-30T06:37:28;13.43;;;13.43;;
50417;SDS011;36346;48.280;14.292;2023-04-30T06:39:58;13.21;;;13.21;;
50417;SDS011;36346;48.280;14.292;2023-04-30T06:42:26;13.37;;;13.37;;
50417;SDS011;36346;48.280;14.292;2023-04-30T06:44:54;13.18;;;13.18;;
50417;SDS011;36346;48.280;14.292;2023-04-30T06:47:22;13.73;;;13.73;;
50417;SDS011;36346;48.280;14.292;2023-04-30T06:49:50;13.45;;;13.45;;
50417;SDS011;36346;48.280;14.292;2023-04-30T06:52:18;13.11;;;13.11;;
50417;SDS011;36346;48.280;14.292;2023-04-30T06:54:47;12.36;;;12.36;;
50417;SDS011;36346;48.280;14.292;2023-04-30T06:57:14;13.19;;;13.19;;
50417;SDS011;36346;48.280;14.292;2023-04-30T06:59:43;13.98;;;13.98;;
50417;SDS011;36346;48.280;14.292;2023-04-30T07:02:11;14.19;;;14.19;;
50417;SDS011;36346;48.280;14.292;2023-04-30T07:04:39;14.05;;;14.05;;
50417;SDS011;36346;48.280;14.292;2023-04-30T07:07:07;15.16;;;15.16;;
50417;SDS011;36346;48.280;14.292;2023-04-30T07:09:35;14.96;;;14.96;;
50417;SDS011;36346;48.280;14.292;2023-04-30T07:12:03;14.93;;;14.93;;
50417;SDS011;36346;48.280;14.292;2023-04-30T07:14:31;14.91;;;14.91;;
50417;SDS011;36346;48.280;14.292;2023-04-30T07:16:59;15.63;;;15.63;;
50417;SDS011;36346;48.280;14.292;2023-04-30T07:19:34;14.26;;;14.26;;
50417;SDS011;36346;48.280;14.292;2023-04-30T07:22:02;14.59;;;14.59;;
50417;SDS011;36346;48.280;14.292;2023-04-30T07:24:30;14.91;;;14.91;;
50417;SDS011;36346;48.280;14.292;2023-04-30T07:26:57;14.34;;;14.34;;
50417;SDS011;36346;48.280;14.292;2023-04-30T07:29:29;13.59;;;13.59;;
50417;SDS011;36346;48.280;14.292;2023-04-30T07:31:57;13.18;;;13.18;;
50417;SDS011;36346;48.280;14.292;2023-04-30T07:34:25;14.15;;;14.15;;
50417;SDS011;36346;48.280;14.292;2023-04-30T07:36:54;13.66;;;13.66;;
50417;SDS011;36346;48.280;14.292;2023-04-30T07:39:22;13.77;;;13.77;;
50417;SDS011;36346;48.280;14.292;2023-04-30T07:41:50;14.35;;;14.35;;
50417;SDS011;36346;48.280;14.292;2023-04-30T07:44:18;14.87;;;14.87;;
50417;SDS011;36346;48.280;14.292;2023-04-30T07:46:46;14.86;;;14.86;;
50417;SDS011;36346;48.280;14.292;2023-04-30T07:49:14;14.36;;;14.36;;
50417;SDS011;36346;48.280;14.292;2023-04-30T07:51:42;14.05;;;14.05;;
50417;SDS011;36346;48.280;14.292;2023-04-30T07:54:10;13.89;;;13.88;;
50417;SDS011;36346;48.280;14.292;2023-04-30T07:56:38;12.98;;;12.98;;
50417;SDS011;36346;48.280;14.292;2023-04-30T07:59:06;12.33;;;12.33;;
50417;SDS011;36346;48.280;14.292;2023-04-30T08:01:34;11.72;;;11.72;;
50417;SDS011;36346;48.280;14.292;2023-04-30T08:04:02;11.25;;;11.25;;
50417;SDS011;36346;48.280;14.292;2023-04-30T08:06:30;10.42;;;10.42;;
50417;SDS011;36346;48.280;14.292;2023-04-30T08:08:58;10.70;;;10.70;;
50417;SDS011;36346;48.280;14.292;2023-04-30T08:11:26;10.36;;;10.36;;
50417;SDS011;36346;48.280;14.292;2023-04-30T08:13:54;10.49;;;10.49;;
50417;SDS011;36346;48.280;14.292;2023-04-30T08:16:22;10.14;;;10.14;;
50417;SDS011;36346;48.280;14.292;2023-04-30T08:18:50;10.46;;;10.46;;
50417;SDS011;36346;48.280;14.292;2023-04-30T08:21:18;11.38;;;11.38;;
50417;SDS011;36346;48.280;14.292;2023-04-30T08:23:46;11.74;;;11.74;;
50417;SDS011;36346;48.280;14.292;2023-04-30T08:26:14;13.52;;;13.52;;
50417;SDS011;36346;48.280;14.292;2023-04-30T08:28:42;12.96;;;12.96;;
50417;SDS011;36346;48.280;14.292;2023-04-30T08:31:11;13.35;;;13.35;;
50417;SDS011;36346;48.280;14.292;2023-04-30T08:33:39;13.57;;;13.57;;
50417;SDS011;36346;48.280;14.292;2023-04-30T08:36:07;12.93;;;12.93;;
50417;SDS011;36346;48.280;14.292;2023-04-30T08:38:35;12.84;;;12.84;;
50417;SDS011;36346;48.280;14.292;2023-04-30T08:43:33;12.02;;;12.02;;
50417;SDS011;36346;48.280;14.292;2023-04-30T08:46:04;13.36;;;13.36;;
50417;SDS011;36346;48.280;14.292;2023-04-30T08:48:33;13.29;;;13.29;;
50417;SDS011;36346;48.280;14.292;2023-04-30T08:51:01;13.75;;;13.75;;
50417;SDS011;36346;48.280;14.292;2023-04-30T08:53:30;13.75;;;13.75;;
50417;SDS011;36346;48.280;14.292;2023-04-30T08:56:02;13.03;;;13.03;;
50417;SDS011;36346;48.280;14.292;2023-04-30T08:58:31;13.41;;;13.38;;
50417;SDS011;36346;48.280;14.292;2023-04-30T09:00:58;13.20;;;13.20;;
50417;SDS011;36346;48.280;14.292;2023-04-30T09:03:29;12.23;;;12.23;;
50417;SDS011;36346;48.280;14.292;2023-04-30T09:05:58;11.93;;;11.93;;
50417;SDS011;36346;48.280;14.292;2023-04-30T09:08:42;11.36;;;11.36;;
50417;SDS011;36346;48.280;14.292;2023-04-30T09:13:59;11.17;;;11.17;;
50417;SDS011;36346;48.280;14.292;2023-04-30T09:16:29;12.72;;;12.72;;
50417;SDS011;36346;48.280;14.292;2023-04-30T09:19:25;11.55;;;11.55;;
50417;SDS011;36346;48.280;14.292;2023-04-30T09:21:55;11.15;;;11.15;;
50417;SDS011;36346;48.280;14.292;2023-04-30T09:24:23;11.51;;;11.51;;
50417;SDS011;36346;48.280;14.292;2023-04-30T09:26:52;11.10;;;11.10;;
50417;SDS011;36346;48.280;14.292;2023-04-30T09:29:20;10.83;;;10.83;;
50417;SDS011;36346;48.280;14.292;2023-04-30T09:31:48;10.15;;;10.15;;
50417;SDS011;36346;48.280;14.292;2023-04-30T09:34:16;10.64;;;10.64;;
50417;SDS011;36346;48.280;14.292;2023-04-30T09:36:51;11.43;;;11.43;;
50417;SDS011;36346;48.280;14.292;2023-04-30T09:39:23;11.62;;;11.62;;
50417;SDS011;36346;48.280;14.292;2023-04-30T09:41:51;11.46;;;11.46;;
50417;SDS011;36346;48.280;14.292;2023-04-30T09:44:29;10.24;;;10.24;;
50417;SDS011;36346;48.280;14.292;2023-04-30T09:46:58;9.19;;;9.19;;
50417;SDS011;36346;48.280;14.292;2023-04-30T09:49:26;8.01;;;8.01;;
50417;SDS011;36346;48.280;14.292;2023-04-30T09:51:55;7.55;;;7.55;;
50417;SDS011;36346;48.280;14.292;2023-04-30T09:54:24;6.72;;;6.72;;
50417;SDS011;36346;48.280;14.292;2023-04-30T09:56:55;7.39;;;7.39;;
50417;SDS011;36346;48.280;14.292;2023-04-30T09:59:29;7.15;;;7.15;;
50417;SDS011;36346;48.280;14.292;2023-04-30T10:01:59;6.95;;;6.95;;
50417;SDS011;36346;48.280;14.292;2023-04-30T10:04:35;9.71;;;9.71;;
50417;SDS011;36346;48.280;14.292;2023-04-30T10:07:11;8.80;;;8.80;;
50417;SDS011;36346;48.280;14.292;2023-04-30T10:09:47;7.28;;;7.28;;
50417;SDS011;36346;48.280;14.292;2023-04-30T10:12:19;7.54;;;7.54;;
50417;SDS011;36346;48.280;14.292;2023-04-30T10:14:55;7.52;;;7.52;;
50417;SDS011;36346;48.280;14.292;2023-04-30T10:17:28;7.73;;;7.73;;
50417;SDS011;36346;48.280;14.292;2023-04-30T10:20:00;8.59;;;8.59;;
50417;SDS011;36346;48.280;14.292;2023-04-30T10:22:34;8.93;;;8.93;;
50417;SDS011;36346;48.280;14.292;2023-04-30T10:25:02;9.17;;;9.17;;
50417;SDS011;36346;48.280;14.292;2023-04-30T10:27:30;9.59;;;9.59;;
50417;SDS011;36346;48.280;14.292;2023-04-30T10:29:59;9.35;;;9.35;;
50417;SDS011;36346;48.280;14.292;2023-04-30T10:32:32;10.18;;;10.18;;
50417;SDS011;36346;48.280;14.292;2023-04-30T10:35:09;11.23;;;11.23;;
50417;SDS011;36346;48.280;14.292;2023-04-30T10:37:52;10.23;;;10.23;;
50417;SDS011;36346;48.280;14.292;2023-04-30T10:40:27;7.21;;;7.21;;
50417;SDS011;36346;48.280;14.292;2023-04-30T10:42:55;8.15;;;8.15;;
50417;SDS011;36346;48.280;14.292;2023-04-30T10:45:36;7.92;;;7.92;;
50417;SDS011;36346;48.280;14.292;2023-04-30T10:48:05;7.98;;;7.98;;
50417;SDS011;36346;48.280;14.292;2023-04-30T10:50:43;9.36;;;9.36;;
50417;SDS011;36346;48.280;14.292;2023-04-30T10:53:13;7.84;;;7.84;;
50417;SDS011;36346;48.280;14.292;2023-04-30T10:55:47;7.41;;;7.41;;
50417;SDS011;36346;48.280;14.292;2023-04-30T10:58:38;7.01;;;7.01;;
50417;SDS011;36346;48.280;14.292;2023-04-30T11:04:06;7.48;;;7.48;;
50417;SDS011;36346;48.280;14.292;2023-04-30T11:09:20;6.48;;;6.48;;
50417;SDS011;36346;48.280;14.292;2023-04-30T11:12:01;6.12;;;6.12;;
50417;SDS011;36346;48.280;14.292;2023-04-30T11:14:31;5.80;;;5.80;;
50417;SDS011;36346;48.280;14.292;2023-04-30T11:17:00;5.69;;;5.69;;
50417;SDS011;36346;48.280;14.292;2023-04-30T11:19:28;5.61;;;5.61;;
50417;SDS011;36346;48.280;14.292;2023-04-30T11:27:27;5.87;;;5.87;;
50417;SDS011;36346;48.280;14.292;2023-04-30T11:29:57;5.42;;;5.42;;
50417;SDS011;36346;48.280;14.292;2023-04-30T11:32:30;6.12;;;6.12;;
50417;SDS011;36346;48.280;14.292;2023-04-30T11:35:04;6.51;;;6.51;;
50417;SDS011;36346;48.280;14.292;2023-04-30T11:37:34;6.09;;;6.09;;
50417;SDS011;36346;48.280;14.292;2023-04-30T11:40:05;6.04;;;6.04;;
50417;SDS011;36346;48.280;14.292;2023-04-30T11:42:38;5.88;;;5.88;;
50417;SDS011;36346;48.280;14.292;2023-04-30T11:45:14;6.21;;;6.21;;
50417;SDS011;36346;48.280;14.292;2023-04-30T11:47:50;6.59;;;6.59;;
50417;SDS011;36346;48.280;14.292;2023-04-30T11:50:20;6.11;;;6.11;;
50417;SDS011;36346;48.280;14.292;2023-04-30T11:52:56;5.58;;;5.58;;
50417;SDS011;36346;48.280;14.292;2023-04-30T11:55:25;5.16;;;5.16;;
50417;SDS011;36346;48.280;14.292;2023-04-30T11:57:55;4.96;;;4.96;;
50417;SDS011;36346;48.280;14.292;2023-04-30T12:00:26;5.35;;;5.35;;
50417;SDS011;36346;48.280;14.292;2023-04-30T12:02:58;5.24;;;5.24;;
50417;SDS011;36346;48.280;14.292;2023-04-30T12:05:28;6.25;;;6.25;;
50417;SDS011;36346;48.280;14.292;2023-04-30T12:07:56;6.29;;;6.29;;
50417;SDS011;36346;48.280;14.292;2023-04-30T12:10:26;6.10;;;6.10;;
50417;SDS011;36346;48.280;14.292;2023-04-30T12:12:54;4.99;;;4.99;;
50417;SDS011;36346;48.280;14.292;2023-04-30T12:15:23;4.48;;;4.48;;
50417;SDS011;36346;48.280;14.292;2023-04-30T12:17:56;4.46;;;4.46;;
50417;SDS011;36346;48.280;14.292;2023-04-30T12:20:26;4.83;;;4.83;;
50417;SDS011;36346;48.280;14.292;2023-04-30T12:22:55;4.46;;;4.46;;
50417;SDS011;36346;48.280;14.292;2023-04-30T12:25:25;4.56;;;4.56;;
50417;SDS011;36346;48.280;14.292;2023-04-30T12:27:57;4.66;;;4.66;;
50417;SDS011;36346;48.280;14.292;2023-04-30T12:30:25;4.69;;;4.69;;
50417;SDS011;36346;48.280;14.292;2023-04-30T12:32:55;4.34;;;4.34;;
50417;SDS011;36346;48.280;14.292;2023-04-30T12:35:26;4.38;;;4.38;;
50417;SDS011;36346;48.280;14.292;2023-04-30T12:38:01;4.36;;;4.36;;
50417;SDS011;36346;48.280;14.292;2023-04-30T12:40:31;4.54;;;4.54;;
50417;SDS011;36346;48.280;14.292;2023-04-30T12:43:00;4.20;;;4.20;;
50417;SDS011;36346;48.280;14.292;2023-04-30T12:45:45;4.40;;;4.40;;
50417;SDS011;36346;48.280;14.292;2023-04-30T12:48:21;5.10;;;5.10;;
50417;SDS011;36346;48.280;14.292;2023-04-30T12:50:59;4.84;;;4.84;;
50417;SDS011;36346;48.280;14.292;2023-04-30T12:53:28;4.40;;;4.40;;
50417;SDS011;36346;48.280;14.292;2023-04-30T12:56:12;4.57;;;4.57;;
50417;SDS011;36346;48.280;14.292;2023-04-30T12:58:43;4.21;;;4.21;;
50417;SDS011;36346;48.280;14.292;2023-04-30T13:01:15;4.01;;;4.01;;
50417;SDS011;36346;48.280;14.292;2023-04-30T13:03:46;4.28;;;4.28;;
50417;SDS011;36346;48.280;14.292;2023-04-30T13:06:14;4.09;;;4.09;;
50417;SDS011;36346;48.280;14.292;2023-04-30T13:08:43;4.03;;;4.03;;
50417;SDS011;36346;48.280;14.292;2023-04-30T13:11:25;3.81;;;3.81;;
50417;SDS011;36346;48.280;14.292;2023-04-30T13:13:54;4.26;;;4.26;;
50417;SDS011;36346;48.280;14.292;2023-04-30T13:16:23;4.06;;;4.06;;
50417;SDS011;36346;48.280;14.292;2023-04-30T13:18:53;4.10;;;4.10;;
50417;SDS011;36346;48.280;14.292;2023-04-30T13:21:21;4.23;;;4.23;;
50417;SDS011;36346;48.280;14.292;2023-04-30T13:23:51;4.40;;;4.40;;
50417;SDS011;36346;48.280;14.292;2023-04-30T13:26:22;4.40;;;4.40;;
50417;SDS011;36346;48.280;14.292;2023-04-30T13:28:50;4.17;;;4.17;;
50417;SDS011;36346;48.280;14.292;2023-04-30T13:31:18;3.62;;;3.62;;
50417;SDS011;36346;48.280;14.292;2023-04-30T13:33:47;3.59;;;3.59;;
50417;SDS011;36346;48.280;14.292;2023-04-30T13:36:15;3.35;;;3.35;;
50417;SDS011;36346;48.280;14.292;2023-04-30T13:38:43;3.54;;;3.54;;
50417;SDS011;36346;48.280;14.292;2023-04-30T13:41:11;3.76;;;3.76;;
50417;SDS011;36346;48.280;14.292;2023-04-30T13:43:39;3.91;;;3.91;;
50417;SDS011;36346;48.280;14.292;2023-04-30T13:46:11;3.55;;;3.55;;
50417;SDS011;36346;48.280;14.292;2023-04-30T13:48:39;3.43;;;3.43;;
50417;SDS011;36346;48.280;14.292;2023-04-30T13:51:07;3.84;;;3.84;;
50417;SDS011;36346;48.280;14.292;2023-04-30T13:53:35;3.29;;;3.29;;
50417;SDS011;36346;48.280;14.292;2023-04-30T13:56:04;3.66;;;3.66;;
50417;SDS011;36346;48.280;14.292;2023-04-30T13:58:33;4.06;;;4.06;;
50417;SDS011;36346;48.280;14.292;2023-04-30T14:01:00;3.89;;;3.89;;
50417;SDS011;36346;48.280;14.292;2023-04-30T14:03:29;3.72;;;3.72;;
50417;SDS011;36346;48.280;14.292;2023-04-30T14:05:57;3.51;;;3.51;;
50417;SDS011;36346;48.280;14.292;2023-04-30T14:08:25;3.89;;;3.89;;
50417;SDS011;36346;48.280;14.292;2023-04-30T14:10:53;3.73;;;3.73;;
50417;SDS011;36346;48.280;14.292;2023-04-30T14:13:22;3.56;;;3.56;;
50417;SDS011;36346;48.280;14.292;2023-04-30T14:15:51;3.72;;;3.72;;
50417;SDS011;36346;48.280;14.292;2023-04-30T14:18:19;4.58;;;4.58;;
50417;SDS011;36346;48.280;14.292;2023-04-30T14:20:49;4.77;;;4.77;;
50417;SDS011;36346;48.280;14.292;2023-04-30T14:23:17;3.52;;;3.52;;
50417;SDS011;36346;48.280;14.292;2023-04-30T14:25:45;3.72;;;3.72;;
50417;SDS011;36346;48.280;14.292;2023-04-30T14:28:14;4.41;;;4.41;;
50417;SDS011;36346;48.280;14.292;2023-04-30T14:30:41;5.36;;;5.36;;
50417;SDS011;36346;48.280;14.292;2023-04-30T14:33:10;4.38;;;4.38;;
50417;SDS011;36346;48.280;14.292;2023-04-30T14:35:39;4.27;;;4.27;;
50417;SDS011;36346;48.280;14.292;2023-04-30T14:38:08;4.51;;;4.51;;
50417;SDS011;36346;48.280;14.292;2023-04-30T14:40:36;4.14;;;4.14;;
50417;SDS011;36346;48.280;14.292;2023-04-30T14:43:03;4.37;;;4.37;;
50417;SDS011;36346;48.280;14.292;2023-04-30T14:45:31;4.29;;;4.29;;
50417;SDS011;36346;48.280;14.292;2023-04-30T14:48:00;4.48;;;4.48;;
50417;SDS011;36346;48.280;14.292;2023-04-30T14:50:31;4.55;;;4.55;;
50417;SDS011;36346;48.280;14.292;2023-04-30T14:52:59;4.72;;;4.72;;
50417;SDS011;36346;48.280;14.292;2023-04-30T14:55:27;4.57;;;4.57;;
50417;SDS011;36346;48.280;14.292;2023-04-30T14:57:55;4.23;;;4.23;;
50417;SDS011;36346;48.280;14.292;2023-04-30T15:00:23;3.87;;;3.87;;
50417;SDS011;36346;48.280;14.292;2023-04-30T15:02:51;4.15;;;4.15;;
50417;SDS011;36346;48.280;14.292;2023-04-30T15:05:19;4.17;;;4.17;;
50417;SDS011;36346;48.280;14.292;2023-04-30T15:07:47;3.95;;;3.95;;
50417;SDS011;36346;48.280;14.292;2023-04-30T15:10:15;4.18;;;4.18;;
50417;SDS011;36346;48.280;14.292;2023-04-30T15:12:43;4.39;;;4.39;;
50417;SDS011;36346;48.280;14.292;2023-04-30T15:15:11;4.77;;;4.77;;
50417;SDS011;36346;48.280;14.292;2023-04-30T15:17:39;4.87;;;4.87;;
50417;SDS011;36346;48.280;14.292;2023-04-30T15:20:08;4.58;;;4.58;;
50417;SDS011;36346;48.280;14.292;2023-04-30T15:22:36;4.27;;;4.27;;